Time;durP1;ratioP1;P1;durP2;ratioP2;P2;SDS_P1;SDS_P2;PMS_P1;PMS_P2;Temp;Humidity;BMP_temperature;BMP_pressure;BME280_temperature;BME280_humidity;BME280_pressure;Samples;Min_cycle;Max_cycle;Signal;HPM_P1;HPM_P2
2022/08/09 00:02:06;;;;;;;1.80;1.23;;;15.90;99.90;;;;;;5007299;28;20034;-59
2022/08/09 00:04:32;;;;;;;2.58;1.27;;;15.80;99.90;;;;;;5014180;28;20022;-59
2022/08/09 00:06:59;;;;;;;4.35;1.38;;;15.80;99.90;;;;;;5010988;28;20520;-59
2022/08/09 00:09:24;;;;;;;3.45;1.27;;;15.70;99.90;;;;;;5010105;28;20083;-59
2022/08/09 00:11:50;;;;;;;3.67;1.60;;;15.60;99.90;;;;;;5007151;28;20030;-58
2022/08/09 00:14:17;;;;;;;1.50;1.30;;;15.50;99.90;;;;;;5009918;28;20030;-58
2022/08/09 00:16:44;;;;;;;5.50;1.33;;;15.60;99.90;;;;;;5022250;28;20022;-58
2022/08/09 00:19:09;;;;;;;3.35;1.40;;;15.70;99.90;;;;;;5002040;28;20037;-59
2022/08/09 00:21:38;;;;;;;3.35;1.60;;;15.70;99.90;;;;;;5022545;28;20022;-59
2022/08/09 00:24:04;;;;;;;5.47;2.17;;;15.70;99.90;;;;;;5012153;28;20125;-60
2022/08/09 00:26:30;;;;;;;3.00;1.60;;;15.70;99.90;;;;;;5014627;28;20495;-58
2022/08/09 00:28:57;;;;;;;3.88;1.50;;;15.70;99.90;;;;;;5011728;28;20034;-59
2022/08/09 00:31:23;;;;;;;7.10;1.40;;;15.60;99.90;;;;;;5014343;28;20037;-59
2022/08/09 00:33:50;;;;;;;2.00;1.42;;;15.60;99.90;;;;;;5014782;28;20036;-58
2022/08/09 00:36:16;;;;;;;2.47;1.30;;;15.60;99.90;;;;;;5015057;28;20165;-59
2022/08/09 00:38:42;;;;;;;2.30;1.48;;;15.60;99.90;;;;;;5020553;28;20036;-59
2022/08/09 00:41:08;;;;;;;2.80;1.63;;;15.50;99.90;;;;;;5014516;28;20033;-59
2022/08/09 00:43:36;;;;;;;3.15;2.20;;;15.50;99.90;;;;;;5024814;28;20049;-60
2022/08/09 00:46:07;;;;;;;4.45;2.20;;;15.50;99.90;;;;;;5017808;28;20025;-59
2022/08/09 00:48:33;;;;;;;1.90;1.30;;;15.40;99.90;;;;;;5012616;28;20103;-59
2022/08/09 00:51:06;;;;;;;3.25;1.67;;;15.40;99.90;;;;;;5015007;28;20367;-58
2022/08/09 00:53:34;;;;;;;4.10;1.90;;;15.30;99.90;;;;;;5014553;28;20398;-58
2022/08/09 00:55:59;;;;;;;3.95;2.28;;;15.30;99.90;;;;;;5015221;28;20026;-59
2022/08/09 00:58:25;;;;;;;2.72;1.35;;;15.30;99.90;;;;;;5016090;28;20026;-58
2022/08/09 01:00:54;;;;;;;2.67;1.67;;;15.20;99.90;;;;;;5027027;28;20028;-59
2022/08/09 01:03:40;;;;;;;2.22;1.23;;;15.20;99.90;;;;;;5013796;28;20040;-61
2022/08/09 01:06:38;;;;;;;2.53;1.52;;;15.10;99.90;;;;;;5007228;28;20084;-60
2022/08/09 01:09:25;;;;;;;4.07;1.75;;;15.20;99.90;;;;;;5017580;28;20041;-59
2022/08/09 01:12:05;;;;;;;3.80;1.75;;;15.20;99.90;;;;;;5018662;28;20022;-60
2022/08/09 01:14:47;;;;;;;2.88;1.73;;;15.10;99.90;;;;;;5011599;28;20025;-61
2022/08/09 01:17:20;;;;;;;3.50;1.67;;;15.10;99.90;;;;;;5008983;28;20030;-59
2022/08/09 01:20:00;;;;;;;1.98;1.10;;;15.00;99.90;;;;;;5012301;28;20026;-59
2022/08/09 01:22:43;;;;;;;2.22;1.55;;;14.90;99.90;;;;;;5011586;28;20096;-59
2022/08/09 01:25:29;;;;;;;5.75;2.30;;;14.90;99.90;;;;;;5020060;28;20509;-59
2022/08/09 01:27:55;;;;;;;3.40;1.52;;;14.90;99.90;;;;;;5010060;28;20053;-59
2022/08/09 01:30:24;;;;;;;2.33;1.52;;;14.90;99.90;;;;;;5020475;28;20379;-59
2022/08/09 01:32:51;;;;;;;4.18;3.85;;;14.80;99.90;;;;;;5020855;28;20105;-59
2022/08/09 01:35:25;;;;;;;2.38;1.90;;;14.90;99.90;;;;;;5013704;28;20120;-59
2022/08/09 01:37:55;;;;;;;2.35;1.70;;;14.90;99.90;;;;;;5012978;28;20088;-59
2022/08/09 01:40:22;;;;;;;7.72;1.95;;;14.90;99.90;;;;;;5014023;28;20398;-60
2022/08/09 01:42:49;;;;;;;3.22;1.70;;;14.90;99.90;;;;;;5012238;28;20037;-58
2022/08/09 01:45:17;;;;;;;3.40;1.60;;;14.90;99.90;;;;;;5010568;28;20509;-59
2022/08/09 01:47:45;;;;;;;3.30;1.70;;;14.90;99.90;;;;;;5015298;28;20026;-59
2022/08/09 01:50:12;;;;;;;2.38;1.67;;;14.90;99.90;;;;;;5010926;28;20041;-59
2022/08/09 01:52:40;;;;;;;1.83;1.48;;;14.80;99.90;;;;;;5011662;28;20093;-60
2022/08/09 01:55:07;;;;;;;3.63;1.50;;;14.70;99.90;;;;;;5009208;28;20048;-59
2022/08/09 01:57:38;;;;;;;4.22;1.98;;;14.70;99.90;;;;;;5010771;28;20045;-59
2022/08/09 02:00:07;;;;;;;2.08;1.45;;;14.60;99.90;;;;;;5003390;28;20030;-59
2022/08/09 02:02:37;;;;;;;3.03;1.65;;;14.60;99.90;;;;;;5010998;28;20486;-59
2022/08/09 02:05:08;;;;;;;1.65;1.55;;;14.70;99.90;;;;;;5004583;28;20132;-59
2022/08/09 02:07:36;;;;;;;2.45;1.73;;;14.70;99.90;;;;;;5009957;28;20025;-59
2022/08/09 02:10:17;;;;;;;3.35;1.77;;;14.70;99.90;;;;;;5013644;28;20037;-59
2022/08/09 02:12:44;;;;;;;2.63;2.00;;;14.70;99.90;;;;;;5011893;28;20053;-58
2022/08/09 02:15:13;;;;;;;3.92;1.65;;;14.70;99.90;;;;;;5012783;28;20108;-59
2022/08/09 02:17:41;;;;;;;4.00;1.60;;;14.60;99.90;;;;;;5026147;28;20030;-59
2022/08/09 02:20:07;;;;;;;5.07;2.00;;;14.50;99.90;;;;;;5016711;28;20037;-60
2022/08/09 02:22:41;;;;;;;4.53;2.20;;;14.50;99.90;;;;;;5013965;28;20038;-58
2022/08/09 02:25:14;;;;;;;4.22;2.00;;;14.60;99.90;;;;;;5005445;28;20068;-58
2022/08/09 02:27:44;;;;;;;2.67;1.70;;;14.60;99.90;;;;;;5023081;28;20453;-58
2022/08/09 02:30:12;;;;;;;5.28;2.28;;;14.60;99.90;;;;;;5007478;28;20033;-59
2022/08/09 02:32:43;;;;;;;3.92;2.33;;;14.60;99.90;;;;;;5022135;28;20502;-58
2022/08/09 02:35:16;;;;;;;2.40;2.20;;;14.60;99.90;;;;;;5018278;28;20029;-59
2022/08/09 02:37:43;;;;;;;2.45;2.22;;;14.60;99.90;;;;;;5017474;28;20030;-58
2022/08/09 02:40:13;;;;;;;5.25;2.15;;;14.60;99.90;;;;;;5015175;28;20112;-59
2022/08/09 02:42:42;;;;;;;2.67;2.25;;;14.50;99.90;;;;;;5015862;28;20390;-58
2022/08/09 02:45:15;;;;;;;2.83;2.42;;;14.50;99.90;;;;;;5010115;28;20164;-58
2022/08/09 02:47:42;;;;;;;4.30;2.40;;;14.50;99.90;;;;;;5019727;28;20026;-60
2022/08/09 02:50:15;;;;;;;2.65;2.45;;;14.50;99.90;;;;;;5017121;28;20029;-59
2022/08/09 02:52:48;;;;;;;4.68;2.47;;;14.50;99.90;;;;;;5013585;28;20168;-60
2022/08/09 02:55:16;;;;;;;3.40;2.00;;;14.60;99.90;;;;;;5009079;28;20033;-59
2022/08/09 02:57:43;;;;;;;3.95;2.50;;;14.60;99.90;;;;;;5012707;28;20413;-60
2022/08/09 03:00:10;;;;;;;3.72;2.70;;;14.60;99.90;;;;;;5008387;28;20037;-60
2022/08/09 03:02:42;;;;;;;4.07;2.85;;;14.60;99.90;;;;;;5009462;28;20088;-58
2022/08/09 03:05:11;;;;;;;5.95;2.97;;;14.50;99.90;;;;;;5007845;28;20061;-59
2022/08/09 03:07:38;;;;;;;5.70;3.10;;;14.50;99.90;;;;;;5016537;28;20038;-59
2022/08/09 03:10:04;;;;;;;7.97;3.40;;;14.50;99.90;;;;;;5015159;28;20041;-59
2022/08/09 03:12:33;;;;;;;9.52;3.50;;;14.50;99.90;;;;;;5009277;28;20482;-60
2022/08/09 03:15:00;;;;;;;4.68;3.70;;;14.50;99.90;;;;;;5017431;28;20034;-59
2022/08/09 03:17:27;;;;;;;4.82;3.58;;;14.60;99.90;;;;;;5008862;28;20028;-59
2022/08/09 03:19:59;;;;;;;5.45;3.60;;;14.50;99.90;;;;;;5008185;28;20068;-59
2022/08/09 03:22:29;;;;;;;9.50;3.70;;;14.50;99.90;;;;;;5011664;28;20129;-60
2022/08/09 03:24:55;;;;;;;9.25;3.75;;;14.50;99.90;;;;;;5011547;28;20116;-58
2022/08/09 03:27:23;;;;;;;4.55;4.05;;;14.60;99.90;;;;;;5007773;28;20068;-60
2022/08/09 03:29:53;;;;;;;4.53;3.58;;;14.50;99.90;;;;;;5012594;28;20046;-59
2022/08/09 03:32:20;;;;;;;6.05;4.07;;;14.50;99.90;;;;;;5009513;28;20026;-59
2022/08/09 03:34:45;;;;;;;6.47;4.38;;;14.50;99.90;;;;;;5011497;28;20033;-60
2022/08/09 03:37:12;;;;;;;6.80;4.55;;;14.50;99.90;;;;;;5009869;28;20137;-59
2022/08/09 03:39:37;;;;;;;6.07;4.22;;;14.60;99.90;;;;;;5011328;28;20026;-60
2022/08/09 03:42:03;;;;;;;7.55;4.90;;;14.60;99.90;;;;;;5010437;28;20433;-59
2022/08/09 03:44:29;;;;;;;7.13;4.57;;;14.60;99.90;;;;;;5028457;22;20444;-63
2022/08/09 03:46:55;;;;;;;7.50;4.68;;;14.60;99.90;;;;;;5008944;28;20072;-64
2022/08/09 03:49:23;;;;;;;6.90;4.97;;;14.60;99.90;;;;;;5013892;28;20083;-64
2022/08/09 03:51:53;;;;;;;6.85;4.57;;;14.60;99.90;;;;;;5017327;28;20040;-63
2022/08/09 03:54:19;;;;;;;6.40;5.28;;;14.60;99.90;;;;;;5017531;28;20029;-63
2022/08/09 03:56:45;;;;;;;7.75;4.70;;;14.60;99.90;;;;;;5017806;28;20026;-63
2022/08/09 03:59:13;;;;;;;6.13;4.78;;;14.50;99.90;;;;;;5016146;28;20048;-63
2022/08/09 04:01:41;;;;;;;9.77;5.00;;;14.50;99.90;;;;;;5010078;28;20029;-63
2022/08/09 04:04:07;;;;;;;7.50;4.80;;;14.50;99.90;;;;;;5017894;28;20033;-63
2022/08/09 04:06:35;;;;;;;10.77;5.00;;;14.50;99.90;;;;;;5018355;28;20116;-63
2022/08/09 04:09:02;;;;;;;6.82;4.82;;;14.50;99.90;;;;;;5016983;28;20069;-63
2022/08/09 04:11:45;;;;;;;8.05;4.05;;;14.50;99.90;;;;;;5014693;28;20030;-61
2022/08/09 04:14:11;;;;;;;5.13;4.50;;;14.40;99.90;;;;;;5013704;28;20029;-64
2022/08/09 04:16:37;;;;;;;8.45;3.90;;;14.40;99.90;;;;;;5015793;28;20073;-64
2022/08/09 04:19:03;;;;;;;6.93;4.45;;;14.40;99.90;;;;;;5026147;28;20029;-64
2022/08/09 04:21:28;;;;;;;7.82;4.13;;;14.30;99.90;;;;;;5019872;28;20080;-64
2022/08/09 04:23:54;;;;;;;5.15;4.05;;;14.30;99.90;;;;;;5016499;28;20038;-65
2022/08/09 04:26:20;;;;;;;6.03;4.15;;;14.40;99.90;;;;;;5019199;28;20034;-65
2022/08/09 04:28:45;;;;;;;5.95;4.75;;;14.40;99.90;;;;;;5010768;28;20469;-65
2022/08/09 04:31:11;;;;;;;7.80;5.38;;;14.30;99.90;;;;;;5012591;28;20099;-65
2022/08/09 04:33:38;;;;;;;6.20;4.80;;;14.30;99.90;;;;;;5014218;28;20409;-65
2022/08/09 04:36:04;;;;;;;5.47;4.78;;;14.40;99.90;;;;;;5025402;28;20063;-62
2022/08/09 04:38:29;;;;;;;9.90;5.90;;;14.30;99.90;;;;;;5019065;28;20054;-64
2022/08/09 04:40:56;;;;;;;8.43;5.18;;;14.40;99.90;;;;;;5019430;28;20029;-63
2022/08/09 04:43:22;;;;;;;9.40;5.13;;;14.30;99.90;;;;;;5010065;28;20393;-64
2022/08/09 04:45:49;;;;;;;8.45;5.78;;;14.40;99.90;;;;;;5013118;28;20398;-63
2022/08/09 04:48:14;;;;;;;7.60;5.03;;;14.40;99.90;;;;;;5015169;28;20029;-64
2022/08/09 04:50:41;;;;;;;11.75;5.00;;;14.40;99.90;;;;;;5017198;28;20040;-64
2022/08/09 04:53:09;;;;;;;10.38;5.20;;;14.40;99.90;;;;;;5012757;28;20041;-64
2022/08/09 04:55:36;;;;;;;7.00;4.22;;;14.50;99.90;;;;;;5013667;28;20037;-64
2022/08/09 04:58:02;;;;;;;7.13;4.40;;;14.50;99.90;;;;;;5013253;28;20367;-63
2022/08/09 05:00:27;;;;;;;5.88;4.63;;;14.50;99.90;;;;;;5015394;28;20088;-64
2022/08/09 05:02:55;;;;;;;6.18;4.70;;;14.50;99.90;;;;;;5014025;28;20072;-64
2022/08/09 05:05:21;;;;;;;8.98;4.75;;;14.60;99.90;;;;;;5012445;28;20145;-63
2022/08/09 05:07:47;;;;;;;6.40;5.07;;;14.60;99.90;;;;;;5015817;28;20049;-63
2022/08/09 05:10:13;;;;;;;8.68;5.40;;;14.70;99.90;;;;;;5010394;28;20100;-64
2022/08/09 05:12:40;;;;;;;8.70;5.00;;;14.70;99.90;;;;;;5020740;28;20083;-65
2022/08/09 05:15:07;;;;;;;12.10;5.18;;;14.70;99.90;;;;;;5016121;28;20112;-63
2022/08/09 05:17:32;;;;;;;9.85;5.72;;;14.70;99.90;;;;;;5019298;28;20026;-63
2022/08/09 05:19:58;;;;;;;12.68;4.68;;;14.80;99.90;;;;;;5010387;28;20022;-64
2022/08/09 05:22:24;;;;;;;10.20;4.85;;;14.80;99.90;;;;;;5006841;28;20482;-64
2022/08/09 05:24:49;;;;;;;11.05;4.93;;;14.80;99.90;;;;;;5008331;28;20021;-63
2022/08/09 05:27:15;;;;;;;10.88;4.78;;;14.80;99.90;;;;;;5012911;28;20026;-64
2022/08/09 05:29:41;;;;;;;7.72;5.28;;;14.80;99.90;;;;;;5016953;28;20046;-64
2022/08/09 05:32:06;;;;;;;7.28;4.57;;;14.90;99.90;;;;;;5009749;28;20383;-64
2022/08/09 05:34:32;;;;;;;8.30;5.13;;;14.90;99.90;;;;;;5010592;28;20489;-65
2022/08/09 05:37:01;;;;;;;8.05;5.50;;;14.90;99.90;;;;;;5021353;28;20057;-64
2022/08/09 05:39:27;;;;;;;8.77;4.85;;;14.90;99.90;;;;;;5010569;28;20439;-65
2022/08/09 05:41:53;;;;;;;6.30;4.38;;;14.90;99.90;;;;;;5008711;28;20022;-62
2022/08/09 05:44:18;;;;;;;8.80;4.93;;;15.00;99.90;;;;;;5015558;28;20052;-63
2022/08/09 05:46:44;;;;;;;7.22;4.43;;;15.00;99.90;;;;;;5007942;28;20030;-65
2022/08/09 05:49:10;;;;;;;7.20;4.75;;;15.10;99.90;;;;;;5009945;28;20101;-65
2022/08/09 05:51:36;;;;;;;6.68;4.68;;;15.10;99.90;;;;;;5009254;28;20030;-65
2022/08/09 05:54:02;;;;;;;7.13;5.72;;;15.10;99.90;;;;;;5018668;28;20395;-65
2022/08/09 05:56:27;;;;;;;8.68;4.70;;;15.10;99.90;;;;;;5021071;28;20481;-60
2022/08/09 05:58:56;;;;;;;9.23;5.68;;;15.20;99.90;;;;;;5023698;28;20029;-64
2022/08/09 06:01:26;;;;;;;5.32;4.53;;;15.20;99.90;;;;;;5016244;28;20080;-63
2022/08/09 06:03:52;;;;;;;9.10;4.85;;;15.20;99.90;;;;;;5023613;28;20564;-64
2022/08/09 06:06:18;;;;;;;8.13;4.53;;;15.30;99.90;;;;;;5010907;28;20121;-64
2022/08/09 06:08:43;;;;;;;7.32;4.53;;;15.30;99.90;;;;;;5006711;28;20434;-64
2022/08/09 06:11:09;;;;;;;8.20;4.80;;;15.30;99.90;;;;;;5003901;28;20030;-64
2022/08/09 06:13:35;;;;;;;8.15;4.63;;;15.40;99.90;;;;;;5016824;28;20390;-65
2022/08/09 06:16:01;;;;;;;9.35;5.50;;;15.30;99.90;;;;;;5013494;28;20397;-64
2022/08/09 06:18:27;;;;;;;7.80;4.63;;;15.50;99.90;;;;;;5010094;28;20026;-64
2022/08/09 06:20:54;;;;;;;12.52;5.55;;;15.50;99.90;;;;;;5013619;28;20033;-65
2022/08/09 06:23:19;;;;;;;7.53;4.90;;;15.50;99.90;;;;;;5015552;28;20108;-64
2022/08/09 06:25:45;;;;;;;7.43;4.95;;;15.60;99.90;;;;;;5023845;28;20449;-64
2022/08/09 06:28:11;;;;;;;7.85;5.63;;;15.60;99.90;;;;;;5009452;28;20030;-64
2022/08/09 06:30:37;;;;;;;8.45;4.90;;;15.70;99.90;;;;;;5015932;28;20049;-64
2022/08/09 06:33:02;;;;;;;10.27;4.97;;;15.70;99.90;;;;;;5015636;28;20120;-64
2022/08/09 06:35:28;;;;;;;11.43;4.93;;;15.80;99.90;;;;;;5012716;28;20104;-65
2022/08/09 06:37:54;;;;;;;11.30;5.20;;;15.90;99.90;;;;;;5023578;28;20026;-64
2022/08/09 06:40:19;;;;;;;9.60;5.40;;;15.90;99.90;;;;;;5018248;28;20503;-63
2022/08/09 06:42:46;;;;;;;6.93;5.22;;;16.00;99.90;;;;;;5008517;28;20040;-65
2022/08/09 06:45:11;;;;;;;10.93;5.03;;;16.00;99.90;;;;;;5017478;28;20026;-64
2022/08/09 06:47:37;;;;;;;12.20;5.82;;;16.10;99.90;;;;;;5015114;28;20168;-65
2022/08/09 06:50:04;;;;;;;5.70;4.85;;;16.10;99.90;;;;;;5002429;28;20046;-63
2022/08/09 06:52:30;;;;;;;7.75;5.03;;;16.30;99.90;;;;;;4999954;28;20037;-64
2022/08/09 06:54:55;;;;;;;9.75;4.88;;;16.30;99.90;;;;;;5016897;28;20038;-64
2022/08/09 06:57:21;;;;;;;13.60;4.60;;;16.30;99.90;;;;;;5002751;28;20026;-64
2022/08/09 06:59:47;;;;;;;8.98;4.95;;;16.40;99.90;;;;;;5009709;28;20022;-65
2022/08/09 07:02:12;;;;;;;6.15;4.50;;;16.40;99.90;;;;;;5009251;28;20027;-64
2022/08/09 07:04:38;;;;;;;11.50;4.50;;;16.50;99.90;;;;;;5007667;28;20113;-66
2022/08/09 07:07:04;;;;;;;7.50;4.57;;;16.50;99.90;;;;;;5008483;28;20026;-65
2022/08/09 07:09:30;;;;;;;10.25;5.50;;;16.60;99.90;;;;;;5008915;28;20042;-64
2022/08/09 07:11:55;;;;;;;7.28;3.88;;;16.70;99.90;;;;;;5005148;28;20037;-64
2022/08/09 07:14:21;;;;;;;8.73;4.90;;;16.80;99.90;;;;;;5018306;28;20095;-65
2022/08/09 07:16:47;;;;;;;6.05;4.07;;;16.80;99.90;;;;;;5018273;28;20018;-64
2022/08/09 07:19:13;;;;;;;8.90;3.88;;;17.00;99.90;;;;;;5010159;28;20105;-64
2022/08/09 07:21:40;;;;;;;10.15;5.10;;;17.00;99.90;;;;;;5012459;28;20034;-64
2022/08/09 07:24:06;;;;;;;6.88;3.55;;;17.10;99.90;;;;;;5007928;28;20084;-63
2022/08/09 07:26:32;;;;;;;6.32;3.00;;;17.20;99.90;;;;;;5015732;28;20033;-60
2022/08/09 07:28:58;;;;;;;5.60;3.13;;;17.30;99.90;;;;;;5006965;28;20042;-65
2022/08/09 07:31:24;;;;;;;8.48;3.53;;;17.40;99.90;;;;;;5010699;28;20075;-61
2022/08/09 07:33:50;;;;;;;10.68;3.22;;;17.50;99.90;;;;;;5020547;28;20037;-62
2022/08/09 07:36:16;;;;;;;6.57;3.58;;;17.50;99.90;;;;;;5017550;28;20163;-62
2022/08/09 07:38:41;;;;;;;9.10;3.10;;;17.70;99.90;;;;;;5014624;28;20053;-63
2022/08/09 07:41:07;;;;;;;5.32;2.75;;;17.70;99.90;;;;;;5016932;28;20022;-63
2022/08/09 07:43:33;;;;;;;5.60;2.60;;;17.90;99.90;;;;;;5013709;28;20049;-63
2022/08/09 07:45:59;;;;;;;10.35;2.38;;;18.10;99.90;;;;;;5007985;28;20033;-63
2022/08/09 07:48:25;;;;;;;6.10;2.85;;;18.30;99.90;;;;;;5007144;28;20527;-63
2022/08/09 07:50:51;;;;;;;10.75;2.50;;;18.50;99.90;;;;;;5013292;28;20037;-63
2022/08/09 07:53:16;;;;;;;4.18;2.42;;;18.60;99.90;;;;;;5010344;28;20076;-64
2022/08/09 07:55:42;;;;;;;6.68;2.40;;;18.80;99.90;;;;;;5013047;28;20552;-64
2022/08/09 07:58:08;;;;;;;8.60;1.85;;;18.90;99.90;;;;;;5009431;28;20033;-64
2022/08/09 08:00:34;;;;;;;5.25;2.17;;;19.00;99.90;;;;;;5014671;28;20157;-64
2022/08/09 08:03:01;;;;;;;5.65;1.83;;;19.10;99.90;;;;;;5013741;28;20026;-64
2022/08/09 08:05:26;;;;;;;5.00;2.28;;;19.20;99.90;;;;;;5014347;28;20474;-64
2022/08/09 08:07:53;;;;;;;7.53;1.80;;;19.30;99.90;;;;;;5010814;28;20024;-63
2022/08/09 08:10:20;;;;;;;2.65;1.65;;;19.40;99.90;;;;;;5014960;28;20091;-64
2022/08/09 08:12:46;;;;;;;5.32;1.77;;;19.40;99.90;;;;;;5011910;28;20068;-63
2022/08/09 08:15:14;;;;;;;4.57;1.50;;;19.50;99.90;;;;;;5011284;28;20029;-63
2022/08/09 08:17:41;;;;;;;6.75;1.67;;;19.60;99.90;;;;;;5016051;28;20034;-63
2022/08/09 08:20:07;;;;;;;5.80;1.48;;;19.70;99.90;;;;;;5013931;28;20030;-64
2022/08/09 08:22:33;;;;;;;2.92;1.27;;;19.70;99.90;;;;;;5014035;28;20037;-63
2022/08/09 08:24:59;;;;;;;2.90;1.20;;;19.80;99.90;;;;;;5015215;28;20022;-63
2022/08/09 08:27:25;;;;;;;4.50;1.80;;;20.00;99.90;;;;;;5011774;28;20034;-63
2022/08/09 08:29:51;;;;;;;2.42;1.15;;;20.20;99.90;;;;;;5010254;28;20038;-62
2022/08/09 08:32:18;;;;;;;10.45;1.92;;;20.30;99.90;;;;;;5016318;28;20132;-63
2022/08/09 08:34:45;;;;;;;4.20;1.25;;;20.30;99.90;;;;;;5021443;28;20044;-63
2022/08/09 08:37:11;;;;;;;3.25;2.40;;;20.30;99.90;;;;;;5016398;28;20026;-63
2022/08/09 08:39:38;;;;;;;5.35;1.65;;;20.30;99.90;;;;;;5013545;28;20052;-63
2022/08/09 08:42:04;;;;;;;3.63;0.73;;;20.50;99.90;;;;;;5016684;28;20034;-64
2022/08/09 08:44:36;;;;;;;6.72;1.52;;;20.50;99.90;;;;;;5016660;28;20053;-63
2022/08/09 08:47:03;;;;;;;3.50;1.10;;;20.70;99.90;;;;;;5017883;28;20033;-64
2022/08/09 08:49:36;;;;;;;2.20;1.20;;;20.70;99.90;;;;;;5009110;28;20049;-63
2022/08/09 08:52:02;;;;;;;0.95;0.85;;;20.90;99.90;;;;;;5014551;28;20040;-64
2022/08/09 08:54:27;;;;;;;6.10;2.55;;;20.90;99.90;;;;;;5014992;28;20026;-63
2022/08/09 08:56:53;;;;;;;3.97;1.40;;;21.00;99.90;;;;;;5025131;28;20543;-62
2022/08/09 08:59:19;;;;;;;2.97;1.40;;;21.00;99.90;;;;;;5011919;28;20026;-62
2022/08/09 09:01:48;;;;;;;3.58;1.20;;;21.10;99.90;;;;;;5011631;28;20508;-62
2022/08/09 09:04:16;;;;;;;3.05;0.70;;;21.10;99.90;;;;;;5008915;28;20105;-63
2022/08/09 09:06:44;;;;;;;4.35;1.20;;;21.20;99.90;;;;;;5010118;28;20029;-62
2022/08/09 09:09:14;;;;;;;7.30;1.00;;;21.30;99.90;;;;;;5012566;28;20033;-63
2022/08/09 09:11:41;;;;;;;2.85;0.77;;;21.60;99.90;;;;;;5011417;28;20501;-63
2022/08/09 09:14:16;;;;;;;2.88;1.20;;;21.80;99.90;;;;;;5012211;28;20030;-63
2022/08/09 09:16:42;;;;;;;3.97;0.90;;;21.90;99.90;;;;;;5007933;28;20456;-63
2022/08/09 09:19:09;;;;;;;2.92;1.00;;;22.00;99.90;;;;;;5017997;28;20171;-63
2022/08/09 09:21:35;;;;;;;2.80;0.95;;;22.10;99.90;;;;;;5012333;28;20072;-64
2022/08/09 09:24:05;;;;;;;1.88;1.00;;;22.10;99.90;;;;;;5010549;28;20184;-65
2022/08/09 09:26:33;;;;;;;4.28;1.00;;;22.20;99.90;;;;;;5011854;28;20021;-64
2022/08/09 09:29:00;;;;;;;1.52;1.00;;;22.40;99.90;;;;;;5007957;28;20494;-63
2022/08/09 09:31:27;;;;;;;2.65;1.20;;;22.40;99.90;;;;;;5015183;28;20033;-63
2022/08/09 09:34:12;;;;;;;2.50;1.10;;;22.40;99.90;;;;;;5012048;28;20120;-63
2022/08/09 09:36:40;;;;;;;5.63;1.20;;;22.50;99.90;;;;;;5010807;28;20025;-63
2022/08/09 09:39:08;;;;;;;2.80;1.10;;;22.60;99.90;;;;;;5009837;28;20120;-64
2022/08/09 09:41:34;;;;;;;4.28;1.45;;;22.80;99.90;;;;;;5008188;28;20034;-63
2022/08/09 09:44:03;;;;;;;4.25;0.80;;;22.80;99.90;;;;;;5013275;28;20076;-64
2022/08/09 09:46:39;;;;;;;3.15;1.42;;;22.80;99.90;;;;;;5016590;28;20401;-63
2022/08/09 09:49:09;;;;;;;2.20;1.38;;;22.80;99.90;;;;;;5008732;28;20034;-63
2022/08/09 09:51:36;;;;;;;4.22;1.40;;;22.80;99.90;;;;;;5011877;28;20068;-62
2022/08/09 09:54:10;;;;;;;2.58;1.50;;;22.90;99.90;;;;;;5017951;28;20026;-64
2022/08/09 09:56:39;;;;;;;2.72;1.27;;;22.90;99.90;;;;;;5004968;28;20033;-64
2022/08/09 09:59:05;;;;;;;2.67;1.25;;;23.00;99.90;;;;;;5014628;28;20037;-63
2022/08/09 10:01:31;;;;;;;3.20;1.02;;;23.00;99.90;;;;;;5009352;28;20041;-63
2022/08/09 10:03:58;;;;;;;2.22;1.08;;;23.10;99.90;;;;;;5007908;28;20474;-63
2022/08/09 10:06:24;;;;;;;2.40;1.20;;;23.30;99.90;;;;;;5017727;28;20482;-63
2022/08/09 10:08:57;;;;;;;3.60;1.10;;;23.40;99.90;;;;;;5013876;28;20113;-62
2022/08/09 10:11:25;;;;;;;1.40;1.08;;;23.50;99.90;;;;;;5012176;28;20448;-63
2022/08/09 10:13:52;;;;;;;3.40;1.00;;;23.70;99.90;;;;;;5002411;28;20033;-63
2022/08/09 10:16:37;;;;;;;3.83;1.35;;;23.90;99.90;;;;;;5008134;28;20029;-64
2022/08/09 10:19:07;;;;;;;2.00;1.00;;;23.80;99.90;;;;;;5007673;28;20036;-64
2022/08/09 10:21:33;;;;;;;2.90;1.20;;;23.80;99.90;;;;;;5011990;28;20049;-64
2022/08/09 10:24:05;;;;;;;4.78;1.00;;;23.90;99.90;;;;;;5011150;28;20042;-63
2022/08/09 10:26:31;;;;;;;2.78;0.95;;;24.00;99.90;;;;;;5010092;28;20085;-62
2022/08/09 10:28:57;;;;;;;1.42;0.80;;;24.10;99.90;;;;;;5007302;28;20038;-62
2022/08/09 10:31:23;;;;;;;3.17;0.95;;;24.30;99.90;;;;;;5010981;28;20112;-64
2022/08/09 10:33:50;;;;;;;4.22;1.10;;;24.70;99.90;;;;;;5008653;28;20022;-62
2022/08/09 10:36:16;;;;;;;3.25;1.15;;;24.70;99.90;;;;;;5011842;28;20069;-64
2022/08/09 10:38:44;;;;;;;4.88;1.10;;;24.80;99.90;;;;;;5011181;28;20034;-63
2022/08/09 10:41:11;;;;;;;4.18;1.58;;;24.80;99.90;;;;;;5002096;28;20417;-63
2022/08/09 10:43:45;;;;;;;3.22;1.02;;;24.80;99.90;;;;;;5007617;28;20422;-64
2022/08/09 10:46:19;;;;;;;3.15;0.98;;;24.90;99.90;;;;;;5006841;28;20145;-63
2022/08/09 10:48:58;;;;;;;4.00;1.00;;;25.00;99.90;;;;;;5012211;28;20078;-63
2022/08/09 10:51:38;;;;;;;3.78;0.90;;;25.20;99.90;;;;;;5007169;28;20482;-65
2022/08/09 10:54:06;;;;;;;2.03;0.77;;;25.50;99.90;;;;;;5012942;28;20022;-63
2022/08/09 10:56:35;;;;;;;2.90;0.88;;;25.80;99.90;;;;;;5018252;28;20500;-64
2022/08/09 10:59:27;;;;;;;1.27;0.63;;;25.70;99.90;;;;;;5015609;28;20037;-63
2022/08/09 11:01:53;;;;;;;4.65;1.40;;;25.70;99.90;;;;;;5000369;28;20084;-63
2022/08/09 11:04:23;;;;;;;2.65;1.00;;;26.00;99.30;;;;;;5014387;28;20116;-63
2022/08/09 11:07:08;;;;;;;4.00;0.73;;;26.20;99.00;;;;;;5015780;28;20122;-64
2022/08/09 11:09:37;;;;;;;5.07;1.45;;;26.10;98.00;;;;;;5007078;28;20398;-64
2022/08/09 11:12:24;;;;;;;2.00;1.17;;;26.50;97.80;;;;;;5006313;28;20439;-64
2022/08/09 11:14:53;;;;;;;1.50;1.13;;;26.80;96.00;;;;;;5010761;28;20496;-64
2022/08/09 11:17:19;;;;;;;4.28;0.88;;;26.90;95.60;;;;;;5007513;28;20030;-64
2022/08/09 11:20:07;;;;;;;5.22;0.90;;;27.40;95.40;;;;;;5008795;28;20029;-64
2022/08/09 11:22:42;;;;;;;2.60;0.60;;;27.90;94.20;;;;;;5013372;28;20052;-64
2022/08/09 11:25:16;;;;;;;2.85;0.60;;;28.30;92.30;;;;;;5008405;28;20058;-63
2022/08/09 11:27:50;;;;;;;1.83;0.80;;;28.40;91.30;;;;;;5016180;28;20030;-63
2022/08/09 11:30:22;;;;;;;2.60;1.27;;;28.90;90.50;;;;;;5007503;28;20121;-65
2022/08/09 11:32:49;;;;;;;1.75;1.08;;;29.10;89.10;;;;;;5018737;28;20476;-65
2022/08/09 11:35:26;;;;;;;6.20;1.15;;;29.60;86.00;;;;;;5011876;28;20068;-64
2022/08/09 11:38:14;;;;;;;1.15;0.70;;;29.50;83.40;;;;;;5006615;28;20493;-64
2022/08/09 11:40:39;;;;;;;1.88;0.77;;;29.60;79.90;;;;;;5001271;28;20050;-64
2022/08/09 11:43:06;;;;;;;3.95;1.98;;;29.70;79.00;;;;;;5005879;28;20079;-64
2022/08/09 11:45:31;;;;;;;3.13;0.68;;;29.70;79.00;;;;;;5005478;28;20089;-64
2022/08/09 11:48:02;;;;;;;1.60;0.65;;;29.70;77.10;;;;;;5008683;28;20089;-64
2022/08/09 11:50:49;;;;;;;7.07;1.05;;;29.60;75.60;;;;;;5011946;28;20379;-63
2022/08/09 11:53:14;;;;;;;3.60;0.52;;;29.90;74.00;;;;;;5011688;28;20044;-64
2022/08/09 11:55:41;;;;;;;3.25;0.80;;;30.30;71.50;;;;;;5004265;28;20125;-63
2022/08/09 11:58:10;;;;;;;3.00;1.02;;;30.30;69.60;;;;;;5002388;28;20610;-62
2022/08/09 12:00:47;;;;;;;3.80;1.52;;;30.30;68.60;;;;;;5000482;28;20076;-62
2022/08/09 12:03:16;;;;;;;3.97;0.60;;;30.40;67.70;;;;;;5004038;28;20030;-64
2022/08/09 12:05:43;;;;;;;2.10;0.50;;;30.20;66.80;;;;;;5010260;28;20061;-64
2022/08/09 12:08:10;;;;;;;4.38;0.63;;;30.70;64.20;;;;;;5008557;28;20083;-63
2022/08/09 12:10:41;;;;;;;2.92;0.70;;;31.10;62.00;;;;;;4998630;28;20033;-63
2022/08/09 12:13:07;;;;;;;2.10;0.88;;;30.70;60.40;;;;;;4998653;28;20034;-64
2022/08/09 12:15:33;;;;;;;2.42;0.95;;;30.90;60.00;;;;;;5009667;28;20378;-64
2022/08/09 12:17:59;;;;;;;2.28;0.80;;;31.00;60.30;;;;;;5016962;28;20495;-64
2022/08/09 12:20:26;;;;;;;1.40;0.60;;;31.10;59.00;;;;;;5012116;28;20025;-63
2022/08/09 12:23:01;;;;;;;2.00;1.00;;;31.00;58.40;;;;;;5016755;28;20303;-63
2022/08/09 12:25:29;;;;;;;2.47;0.70;;;31.30;58.00;;;;;;5016501;28;20105;-63
2022/08/09 12:28:17;;;;;;;1.98;0.93;;;31.70;56.30;;;;;;5022503;28;20116;-63
2022/08/09 12:30:43;;;;;;;1.35;0.70;;;31.60;56.70;;;;;;5006532;28;20038;-65
2022/08/09 12:33:10;;;;;;;2.67;0.70;;;32.20;55.30;;;;;;5007888;28;20098;-66
2022/08/09 12:35:37;;;;;;;1.52;0.73;;;32.30;53.90;;;;;;5015511;28;20068;-63
2022/08/09 12:38:20;;;;;;;5.97;0.70;;;32.20;53.40;;;;;;5020052;28;20481;-64
2022/08/09 12:40:48;;;;;;;3.83;0.82;;;31.90;53.90;;;;;;5013834;28;20038;-64
2022/08/09 12:43:17;;;;;;;2.85;0.70;;;31.60;54.10;;;;;;5007118;28;20048;-62
2022/08/09 12:45:44;;;;;;;2.45;0.60;;;31.70;54.00;;;;;;5003850;28;20041;-64
2022/08/09 12:48:10;;;;;;;5.15;1.10;;;32.00;53.50;;;;;;5012674;28;20041;-63
2022/08/09 12:50:37;;;;;;;9.18;1.20;;;32.50;52.80;;;;;;5010084;28;20141;-63
2022/08/09 12:53:03;;;;;;;1.13;0.70;;;32.40;52.80;;;;;;5006994;28;20030;-64